APL Denmark — A8JX9 — position and weather

sailwx.info

Track history (hours):
 
Tides and Currents Weather Stations Pressure Air Temp Water Temp Dewpoint Dewpoint Depression Visibility Wind Speed Wind Dir Waves Ship Positions

APL Denmark

Last reported at 2016-Jul-23 20:11 UTC. Time now 2016-Jul-27 15:22 UTC.
Position S 34°47' W 057°30'.

Length 277 m; beam 40 m; draft 14 m.

Type: Ship. MMSI: 636091157.

Date/timePositionNaut miles runAvg speedWind from/ knotsBaromVisibWave heightAir tempDewpointWater temp
2016-Jul-23 20:11S 34°47' W 057°30'913.6
2016-Jul-23 19:29S 34°44' W 057°41'1112.3
2016-Jul-23 18:34S 34°42' W 057°54'1514.8
2016-Jul-23 17:33S 34°37' W 058°12'8 7.6
2016-Jul-23 16:33S 34°38' W 058°21'0 0.0
2016-Jul-22 15:23S 34°39' W 058°20'0 0.0
2016-Jul-22 12:11S 34°39' W 058°20'4 2.4
2016-Jul-22 10:33S 34°36' W 058°17'1010.4
2016-Jul-22 09:33S 34°39' W 058°04'9 8.7
2016-Jul-22 08:33S 34°42' W 057°54'2 2.0
2016-Jul-22 07:32S 34°43' W 057°53'5 5.5
2016-Jul-22 06:33S 34°44' W 057°46'42611.6
2016-Jul-20 18:00S 31°06' W 050°30'15112.6 240 / 111023.5 5.4 11.0 9.213.0
2016-Jul-20 06:00S 29°00' W 048°54'6910.6 10.0 17.0
2016-Jul-19 23:32S 27°58' W 048°21'1111.1
2016-Jul-19 22:33S 27°48' W 048°16'1111.2
2016-Jul-19 21:33S 27°38' W 048°11'1211.9
2016-Jul-19 20:33S 27°27' W 048°06'20312.7
2016-Jul-19 04:33S 24°23' W 046°30'1312.6
2016-Jul-19 03:33S 24°11' W 046°25'1212.4
2016-Jul-19 02:33S 23°60' W 046°20'4 4.3
2016-Jul-19 01:33S 23°56' W 046°19'0 0.1
2016-Jul-19 00:30S 23°56' W 046°19'0 0.0
2016-Jul-18 23:30S 23°56' W 046°19'0 0.0
2016-Jul-18 22:30S 23°56' W 046°19'0 0.0
2016-Jul-18 20:24S 23°56' W 046°19'0 0.0
2016-Jul-18 19:30S 23°56' W 046°19'0 0.0
2016-Jul-18 18:30S 23°56' W 046°19'0 0.0
2016-Jul-18 17:30S 23°56' W 046°19'0 0.0
2016-Jul-18 16:30S 23°56' W 046°19'0 0.0
2016-Jul-18 15:30S 23°56' W 046°19'0 0.0
2016-Jul-18 14:30S 23°56' W 046°19'0 0.0
2016-Jul-18 13:30S 23°56' W 046°19'0 0.0
2016-Jul-18 12:30S 23°56' W 046°19'3 2.8
2016-Jul-18 11:33S 23°58' W 046°18'6 6.3
2016-Jul-18 10:33S 24°03' W 046°21'6 6.4
2016-Jul-18 09:33S 24°05' W 046°14'6 6.2
2016-Jul-18 08:33S 24°03' W 046°07'6 6.2
2016-Jul-18 07:32S 24°02' W 046°00'17112.6
2016-Jul-17 18:00S 23°18' W 043°00'12610.5 260 / 251016.0 5.4 1.019.514.722.0
2016-Jul-17 06:00S 22°18' W 041°00'15512.9 220 / 271012.0 5.4 1.022.019.023.0
2016-Jul-16 18:00S 20°12' W 039°24'15913.3 360 / 221012.010.8 1.026.023.224.0
2016-Jul-16 06:00S 17°48' W 038°12'   360 / 111016.010.8 0.525.022.225.0
Track history (hours):
 
Tides and Currents Weather Stations Pressure Air Temp Water Temp Dewpoint Dewpoint Depression Visibility Wind Speed Wind Dir Waves Ship Positions

APL Denmark

Last reported at 2016-Jul-23 20:11 UTC. Time now 2016-Jul-27 15:22 UTC.
Position S 34°47' W 057°30'.

Length 277 m; beam 40 m; draft 14 m.

Type: Ship. MMSI: 636091157.

Date/timePositionNaut miles runAvg speedWind from/ knotsBaromVisibWave heightAir tempDewpointWater temp
2016-Jul-23 20:11S 34°47' W 057°30'913.6
2016-Jul-23 19:29S 34°44' W 057°41'1112.3
2016-Jul-23 18:34S 34°42' W 057°54'1514.8
2016-Jul-23 17:33S 34°37' W 058°12'8 7.6
2016-Jul-23 16:33S 34°38' W 058°21'0 0.0
2016-Jul-22 15:23S 34°39' W 058°20'0 0.0
2016-Jul-22 12:11S 34°39' W 058°20'4 2.4
2016-Jul-22 10:33S 34°36' W 058°17'1010.4
2016-Jul-22 09:33S 34°39' W 058°04'9 8.7
2016-Jul-22 08:33S 34°42' W 057°54'2 2.0
2016-Jul-22 07:32S 34°43' W 057°53'5 5.5
2016-Jul-22 06:33S 34°44' W 057°46'42611.6
2016-Jul-20 18:00S 31°06' W 050°30'15112.6 240 / 111023.5 5.4 11.0 9.213.0
2016-Jul-20 06:00S 29°00' W 048°54'6910.6 10.0 17.0
2016-Jul-19 23:32S 27°58' W 048°21'1111.1
2016-Jul-19 22:33S 27°48' W 048°16'1111.2
2016-Jul-19 21:33S 27°38' W 048°11'1211.9
2016-Jul-19 20:33S 27°27' W 048°06'20312.7
2016-Jul-19 04:33S 24°23' W 046°30'1312.6
2016-Jul-19 03:33S 24°11' W 046°25'1212.4
2016-Jul-19 02:33S 23°60' W 046°20'4 4.3
2016-Jul-19 01:33S 23°56' W 046°19'0 0.1
2016-Jul-19 00:30S 23°56' W 046°19'0 0.0
2016-Jul-18 23:30S 23°56' W 046°19'0 0.0
2016-Jul-18 22:30S 23°56' W 046°19'0 0.0
2016-Jul-18 20:24S 23°56' W 046°19'0 0.0
2016-Jul-18 19:30S 23°56' W 046°19'0 0.0
2016-Jul-18 18:30S 23°56' W 046°19'0 0.0
2016-Jul-18 17:30S 23°56' W 046°19'0 0.0
2016-Jul-18 16:30S 23°56' W 046°19'0 0.0
2016-Jul-18 15:30S 23°56' W 046°19'0 0.0
2016-Jul-18 14:30S 23°56' W 046°19'0 0.0
2016-Jul-18 13:30S 23°56' W 046°19'0 0.0
2016-Jul-18 12:30S 23°56' W 046°19'3 2.8
2016-Jul-18 11:33S 23°58' W 046°18'6 6.3
2016-Jul-18 10:33S 24°03' W 046°21'6 6.4
2016-Jul-18 09:33S 24°05' W 046°14'6 6.2
2016-Jul-18 08:33S 24°03' W 046°07'6 6.2
2016-Jul-18 07:32S 24°02' W 046°00'17112.6
2016-Jul-17 18:00S 23°18' W 043°00'12610.5 260 / 251016.0 5.4 1.019.514.722.0
2016-Jul-17 06:00S 22°18' W 041°00'15512.9 220 / 271012.0 5.4 1.022.019.023.0
2016-Jul-16 18:00S 20°12' W 039°24'15913.3 360 / 221012.010.8 1.026.023.224.0
2016-Jul-16 06:00S 17°48' W 038°12'   360 / 111016.010.8 0.525.022.225.0

Dump ship's entire track history